Time;durP1;ratioP1;P1;durP2;ratioP2;P2;SDS_P1;SDS_P2;PMS_P1;PMS_P2;Temp;Humidity;BMP_temperature;BMP_pressure;BME280_temperature;BME280_humidity;BME280_pressure;Samples;Min_cycle;Max_cycle;Signal;HPM_P1;HPM_P2
2023/09/28 00:02:48;;;;;;;3.08;2.58;;;;;;;17.66;89.07;101250.38;5033650;28;20104;-81
2023/09/28 00:05:14;;;;;;;3.37;2.57;;;;;;;17.65;89.20;101252.16;5032698;28;20470;-81
2023/09/28 00:07:41;;;;;;;3.10;2.33;;;;;;;17.63;89.50;101253.09;5032672;28;20017;-80
2023/09/28 00:10:07;;;;;;;;;;;;;;;17.62;89.20;101256.69;5033698;28;20128;-81
2023/09/28 00:12:35;;;;;;;4.22;2.40;;;;;;;17.58;89.12;101242.78;5032730;28;19955;-81
2023/09/28 00:15:04;;;;;;;3.08;2.33;;;;;;;17.57;89.43;101256.81;5032348;28;20048;-80
2023/09/28 00:17:29;;;;;;;3.25;2.45;;;;;;;17.53;89.45;101242.97;5033022;28;20029;-80
2023/09/28 00:19:57;;;;;;;2.40;2.20;;;;;;;17.53;89.16;101250.84;5033114;28;20520;-80
2023/09/28 00:22:25;;;;;;;3.20;2.65;;;;;;;17.50;89.66;101264.09;5032105;28;20112;-80
2023/09/28 00:24:53;;;;;;;3.47;2.40;;;;;;;17.48;89.72;101255.44;5033157;28;20390;-81
2023/09/28 00:27:18;;;;;;;2.30;2.10;;;;;;;17.46;89.56;101252.00;5032051;28;20485;-81
2023/09/28 00:29:57;;;;;;;2.37;2.17;;;;;;;17.42;89.49;101267.00;5033226;28;20033;-81
2023/09/28 00:32:22;;;;;;;2.30;2.00;;;;;;;17.39;89.92;101264.50;5027997;28;20034;-81
2023/09/28 00:34:48;;;;;;;1.90;1.80;;;;;;;17.38;89.43;101264.56;5031982;28;20074;-81
2023/09/28 00:37:13;;;;;;;2.43;2.00;;;;;;;17.34;90.24;101274.28;5032568;28;20028;-81
2023/09/28 00:39:38;;;;;;;2.20;2.00;;;;;;;17.31;89.76;101279.66;5032305;28;20029;-81
2023/09/28 00:42:05;;;;;;;1.87;1.77;;;;;;;17.29;89.79;101277.09;5031916;28;20022;-81
2023/09/28 00:44:30;;;;;;;1.90;1.80;;;;;;;17.27;89.89;101278.94;5033007;28;20036;-80
2023/09/28 00:46:56;;;;;;;1.73;1.63;;;;;;;17.27;89.99;101284.19;5032564;28;20466;-80
2023/09/28 00:49:23;;;;;;;2.07;1.87;;;;;;;17.20;90.43;101279.19;5031099;28;20516;-80
2023/09/28 00:51:48;;;;;;;1.67;1.52;;;;;;;17.18;89.81;101283.63;5032546;28;20045;-81
2023/09/28 00:54:16;;;;;;;1.50;1.40;;;;;;;17.15;90.18;101287.25;5032115;28;20022;-81
2023/09/28 00:56:42;;;;;;;1.70;1.60;;;;;;;17.14;90.06;101285.53;5031971;28;20382;-80
2023/09/28 00:59:07;;;;;;;1.77;1.60;;;;;;;17.07;90.53;101270.91;5031918;28;20113;-80
2023/09/28 01:01:35;;;;;;;1.87;1.77;;;;;;;17.05;90.80;101276.22;5032261;28;20068;-81
2023/09/28 01:04:05;;;;;;;1.70;1.60;;;;;;;17.05;90.53;101273.59;5031628;28;20021;-80
2023/09/28 01:06:32;;;;;;;1.77;1.67;;;;;;;16.98;91.11;101261.63;5032419;28;20025;-80
2023/09/28 01:08:57;;;;;;;2.00;1.80;;;;;;;16.97;91.17;101270.38;5032432;28;20540;-81
2023/09/28 01:11:23;;;;;;;1.73;1.63;;;;;;;16.96;91.05;101273.91;5031423;28;20038;-81
2023/09/28 01:13:49;;;;;;;1.70;1.60;;;;;;;16.93;91.12;101287.97;5032252;28;20033;-80
2023/09/28 01:16:14;;;;;;;1.60;1.50;;;;;;;16.91;91.08;101281.91;5031895;28;20029;-80
2023/09/28 01:18:40;;;;;;;1.93;1.67;;;;;;;16.87;91.75;101285.53;5031323;28;20353;-80
2023/09/28 01:21:10;;;;;;;1.55;1.45;;;;;;;16.85;92.00;101287.34;5032345;28;20383;-81
2023/09/28 01:23:35;;;;;;;1.60;1.50;;;;;;;16.80;91.25;101284.91;5031711;28;20097;-80
2023/09/28 01:26:01;;;;;;;1.50;1.40;;;;;;;16.76;91.37;101278.06;5032188;28;20100;-80
2023/09/28 01:28:27;;;;;;;1.50;1.40;;;;;;;16.73;91.89;101293.88;5032399;28;20021;-81
2023/09/28 01:30:53;;;;;;;1.60;1.50;;;;;;;16.68;91.49;101285.31;5031569;28;20022;-81
2023/09/28 01:33:18;;;;;;;1.87;1.77;;;;;;;16.66;93.76;101295.84;5031802;28;20040;-81
2023/09/28 01:35:44;;;;;;;1.80;1.70;;;;;;;16.65;92.35;101285.44;5032217;28;20030;-80
2023/09/28 01:38:34;;;;;;;2.33;1.57;;;;;;;16.63;92.57;101287.25;5031037;28;20040;-80
2023/09/28 01:40:59;;;;;;;1.60;1.50;;;;;;;16.57;93.87;101277.81;5032231;28;20037;-80
2023/09/28 01:43:25;;;;;;;1.80;1.70;;;;;;;16.57;93.57;101283.06;5032225;28;20363;-80
2023/09/28 01:45:50;;;;;;;1.70;1.60;;;;;;;16.52;93.64;101283.22;5035184;28;20102;-80
2023/09/28 01:48:16;;;;;;;2.07;1.83;;;;;;;16.49;93.75;101285.94;5035520;28;20036;-81
2023/09/28 01:50:41;;;;;;;1.63;1.53;;;;;;;16.59;92.99;101301.34;5036102;28;20370;-81
2023/09/28 01:53:07;;;;;;;3.57;2.10;;;;;;;16.54;94.52;101298.03;5034717;28;20044;-81
2023/09/28 01:55:32;;;;;;;2.23;1.93;;;;;;;16.55;93.07;101299.75;5035593;28;20486;-81
2023/09/28 01:57:59;;;;;;;1.93;1.70;;;;;;;16.52;93.35;101295.44;5035611;28;20026;-81
2023/09/28 02:00:25;;;;;;;2.65;1.80;;;;;;;16.51;94.60;101305.09;5034215;28;20104;-80
2023/09/28 02:02:55;;;;;;;1.80;1.70;;;;;;;16.43;93.45;101303.63;5035166;28;20040;-80
2023/09/28 02:05:25;;;;;;;2.15;1.88;;;;;;;16.46;94.34;101314.00;5035209;28;20075;-80
2023/09/28 02:07:51;;;;;;;1.73;1.63;;;;;;;16.43;93.71;101316.72;5034962;28;20032;-80
2023/09/28 02:10:16;;;;;;;1.53;1.43;;;;;;;16.43;93.77;101321.94;5034823;28;20021;-81
2023/09/28 02:12:46;;;;;;;1.33;1.23;;;;;;;16.40;93.72;101328.16;5034689;28;20025;-81
2023/09/28 02:15:16;;;;;;;1.42;1.33;;;;;;;16.40;94.24;101325.53;5035070;28;20045;-80
2023/09/28 02:17:42;;;;;;;1.30;1.20;;;;;;;16.33;94.13;101321.38;5035509;28;20026;-81
2023/09/28 02:20:09;;;;;;;1.92;1.70;;;;;;;16.33;95.41;101329.22;5033963;28;20029;-81
2023/09/28 02:22:44;;;;;;;1.67;1.58;;;;;;;16.27;95.38;101324.22;5035158;28;20021;-81
2023/09/28 02:25:14;;;;;;;1.90;1.77;;;;;;;16.26;97.09;101323.38;5034762;28;20108;-81
2023/09/28 02:27:39;;;;;;;2.13;1.80;;;;;;;16.23;95.83;101322.56;5034558;28;20090;-81
2023/09/28 02:30:06;;;;;;;2.10;1.90;;;;;;;16.24;96.18;101324.28;5034544;28;20405;-80
2023/09/28 02:32:32;;;;;;;1.70;1.60;;;;;;;16.20;95.07;101323.53;5035232;28;20025;-80
2023/09/28 02:34:58;;;;;;;1.73;1.63;;;;;;;16.20;94.93;101321.78;5034260;28;20371;-81
2023/09/28 02:37:24;;;;;;;1.95;1.75;;;;;;;16.18;96.01;101328.84;5034315;28;20028;-81
2023/09/28 02:39:49;;;;;;;1.43;1.33;;;;;;;16.14;95.54;101318.50;5034626;28;20021;-81
2023/09/28 02:42:15;;;;;;;1.30;1.30;;;;;;;16.10;95.25;101329.97;5034059;28;20486;-81
2023/09/28 02:44:40;;;;;;;2.07;1.87;;;;;;;16.07;95.21;101333.53;5034800;28;20510;-81
2023/09/28 02:47:05;;;;;;;1.47;1.37;;;;;;;16.02;96.72;101320.59;5034390;28;20406;-80
2023/09/28 02:49:34;;;;;;;1.70;1.60;;;;;;;16.04;96.30;101336.25;5033983;28;20048;-81
2023/09/28 02:52:00;;;;;;;1.80;1.70;;;;;;;15.98;96.73;101328.59;5034386;28;20083;-80
2023/09/28 02:54:26;;;;;;;1.63;1.50;;;;;;;16.00;96.69;101334.63;5034177;28;20156;-80
2023/09/28 02:56:53;;;;;;;2.33;1.70;;;;;;;15.96;97.25;101333.00;5033165;28;20025;-80
2023/09/28 02:59:22;;;;;;;1.70;1.60;;;;;;;15.93;96.42;101335.72;5034180;28;20033;-81
2023/09/28 03:01:48;;;;;;;1.42;1.33;;;;;;;15.89;96.49;101329.72;5034182;28;20041;-81
2023/09/28 03:04:15;;;;;;;1.50;1.40;;;;;;;15.87;97.44;101327.16;5033399;28;20033;-81
2023/09/28 03:06:40;;;;;;;;;;;;;;;15.83;97.31;101337.69;5034614;28;20367;-81
2023/09/28 03:09:08;;;;;;;2.50;1.90;;;;;;;15.69;98.01;101325.91;5033201;28;19995;-80
2023/09/28 03:11:35;;;;;;;1.60;1.50;;;;;;;15.69;97.93;101332.88;5034523;28;20024;-81
2023/09/28 03:14:05;;;;;;;1.60;1.50;;;;;;;15.69;97.46;101340.72;5033696;28;20371;-80
2023/09/28 03:16:30;;;;;;;1.45;1.35;;;;;;;15.71;97.00;101349.41;5033555;28;20029;-81
2023/09/28 03:18:57;;;;;;;1.43;1.33;;;;;;;15.73;97.65;101350.22;5034249;28;20390;-81
2023/09/28 03:21:22;;;;;;;1.50;1.40;;;;;;;15.69;97.95;101351.19;5033812;28;20478;-81
2023/09/28 03:23:48;;;;;;;1.63;1.53;;;;;;;15.71;98.75;101352.00;5033347;28;20087;-80
2023/09/28 03:26:13;;;;;;;1.70;1.60;;;;;;;15.69;97.90;101367.78;5033202;28;20363;-80
2023/09/28 03:28:38;;;;;;;1.70;1.60;;;;;;;15.57;97.24;101342.78;5033977;28;20091;-80
2023/09/28 03:31:06;;;;;;;1.57;1.47;;;;;;;15.65;97.52;101355.66;5032534;28;20390;-80
2023/09/28 03:33:31;;;;;;;1.35;1.25;;;;;;;15.63;97.71;101360.06;5033732;28;20026;-80
2023/09/28 03:36:03;;;;;;;1.30;1.20;;;;;;;15.63;98.22;101364.47;5033432;28;20064;-80
2023/09/28 03:38:29;;;;;;;1.20;1.20;;;;;;;15.63;98.18;101372.31;5032718;28;20025;-81
2023/09/28 03:40:54;;;;;;;1.40;1.30;;;;;;;15.56;97.79;101367.25;5033498;28;20025;-80
2023/09/28 03:43:20;;;;;;;1.20;1.10;;;;;;;15.53;97.88;101375.19;5033356;28;20469;-80
2023/09/28 03:45:45;;;;;;;1.23;1.13;;;;;;;15.48;97.99;101368.38;5032361;28;20112;-80
2023/09/28 03:48:10;;;;;;;1.00;1.00;;;;;;;15.54;97.88;101386.50;5033004;28;20021;-80
2023/09/28 03:50:36;;;;;;;0.90;0.90;;;;;;;15.54;98.32;101399.59;5033489;28;20021;-80
2023/09/28 03:53:04;;;;;;;0.97;0.97;;;;;;;15.50;99.37;101401.44;5032514;28;20080;-80
2023/09/28 03:55:29;;;;;;;1.50;1.40;;;;;;;15.48;100.00;101398.00;5033703;28;20049;-80
2023/09/28 03:57:59;;;;;;;2.00;1.70;;;;;;;15.47;99.45;101396.28;5033199;28;20069;-80
2023/09/28 04:00:25;;;;;;;1.80;1.70;;;;;;;15.43;99.26;101392.88;5032637;28;20029;-80
2023/09/28 04:02:51;;;;;;;1.70;1.60;;;;;;;15.44;99.18;101393.72;5033145;28;20045;-80
2023/09/28 04:05:17;;;;;;;1.48;1.38;;;;;;;15.37;99.23;101384.34;5032273;28;20026;-80
2023/09/28 04:07:43;;;;;;;1.50;1.40;;;;;;;15.39;98.71;101396.47;5032393;28;20033;-81
2023/09/28 04:10:09;;;;;;;1.50;1.40;;;;;;;15.38;99.50;101404.38;5032890;28;20044;-81
2023/09/28 04:12:35;;;;;;;1.48;1.38;;;;;;;15.34;99.97;101398.38;5032065;28;20889;-80
2023/09/28 04:15:01;;;;;;;2.05;1.70;;;;;;;15.32;100.00;101405.38;5033160;28;20061;-80
2023/09/28 04:17:26;;;;;;;3.07;2.07;;;;;;;15.26;100.00;101393.34;5032551;28;20073;-80
2023/09/28 04:19:52;;;;;;;1.90;1.80;;;;;;;15.26;100.00;101401.19;5032323;28;20024;-81
2023/09/28 04:22:18;;;;;;;1.80;1.70;;;;;;;15.21;100.00;101394.34;5032634;28;20043;-81
2023/09/28 04:24:43;;;;;;;1.70;1.60;;;;;;;15.23;100.00;101397.78;5032603;28;20151;-80
2023/09/28 04:27:08;;;;;;;1.40;1.23;;;;;;;15.21;100.00;101400.41;5031943;28;20029;-80
2023/09/28 04:29:35;;;;;;;1.20;1.10;;;;;;;15.17;100.00;101398.81;5032984;28;20021;-80
2023/09/28 04:32:01;;;;;;;1.30;1.20;;;;;;;15.18;99.97;101402.25;5032769;28;20488;-80
2023/09/28 04:34:26;;;;;;;1.30;1.20;;;;;;;15.15;99.61;101400.59;5031664;28;20437;-80
2023/09/28 04:36:51;;;;;;;1.40;1.30;;;;;;;15.13;100.00;101408.50;5032732;28;20033;-80
2023/09/28 04:39:17;;;;;;;1.30;1.13;;;;;;;15.12;100.00;101408.50;5032509;28;20037;-80
2023/09/28 04:41:43;;;;;;;1.70;1.60;;;;;;;15.11;100.00;101409.41;5032243;28;20478;-80
2023/09/28 04:44:11;;;;;;;1.58;1.48;;;;;;;15.05;100.00;101401.72;5032334;28;20088;-80
2023/09/28 04:46:36;;;;;;;1.35;1.25;;;;;;;15.09;99.94;101419.03;5032779;28;20471;-80
2023/09/28 04:49:02;;;;;;;1.33;1.23;;;;;;;15.06;99.69;101417.34;5031870;28;20036;-80
2023/09/28 04:51:29;;;;;;;1.65;1.55;;;;;;;15.05;99.48;101425.25;5032565;28;20035;-80
2023/09/28 04:53:54;;;;;;;1.40;1.10;;;;;;;15.01;99.92;101426.22;5032744;28;20028;-78
2023/09/28 04:56:20;;;;;;;1.23;1.20;;;;;;;15.00;99.93;101427.09;5031771;28;20389;-80
2023/09/28 04:58:45;;;;;;;1.00;1.00;;;;;;;14.97;100.00;101421.06;5032559;28;20455;-80
2023/09/28 05:01:11;;;;;;;1.00;1.00;;;;;;;14.94;100.00;101433.34;5031950;28;20096;-80
2023/09/28 05:03:37;;;;;;;1.20;1.20;;;;;;;14.90;100.00;101443.00;5031845;28;20033;-80
2023/09/28 05:06:02;;;;;;;1.33;1.23;;;;;;;14.88;100.00;101450.03;5032663;28;20075;-80
2023/09/28 05:08:28;;;;;;;2.27;1.87;;;;;;;14.85;100.00;101455.34;5032123;28;20117;-80
2023/09/28 05:10:53;;;;;;;2.73;2.10;;;;;;;14.82;100.00;101451.03;5031476;28;20030;-80
2023/09/28 05:13:21;;;;;;;1.92;1.80;;;;;;;14.80;100.00;101468.53;5031925;28;20076;-80
2023/09/28 05:15:46;;;;;;;2.25;2.05;;;;;;;14.76;100.00;101461.63;5031643;28;20475;-80
2023/09/28 05:18:11;;;;;;;2.40;2.10;;;;;;;14.75;100.00;101466.91;5031526;28;20036;-80
2023/09/28 05:20:37;;;;;;;2.77;2.03;;;;;;;14.66;100.00;101460.09;5036489;28;20040;-80
2023/09/28 05:23:03;;;;;;;2.10;1.90;;;;;;;14.70;100.00;101479.19;5031479;28;20463;-80
2023/09/28 05:25:29;;;;;;;;;;;;;;;14.70;100.00;101481.81;5024818;28;20083;-80
2023/09/28 05:27:54;;;;;;;2.27;2.07;;;;;;;14.59;100.00;101474.16;5035914;28;19913;-80
2023/09/28 05:30:20;;;;;;;2.53;2.10;;;;;;;14.62;100.00;101488.06;5035210;28;20488;-80
2023/09/28 05:32:45;;;;;;;2.10;1.90;;;;;;;14.62;100.00;101495.88;5035983;28;20048;-80
2023/09/28 05:35:10;;;;;;;1.83;1.73;;;;;;;14.58;100.00;101494.22;5035899;28;20029;-80
2023/09/28 05:37:36;;;;;;;1.73;1.63;;;;;;;14.61;100.00;101490.66;5035166;28;20049;-80
2023/09/28 05:40:04;;;;;;;1.87;1.60;;;;;;;14.55;100.00;101496.03;5035025;28;20533;-80
2023/09/28 05:42:29;;;;;;;1.73;1.63;;;;;;;14.57;100.00;101502.09;5034292;28;20064;-80
2023/09/28 05:44:54;;;;;;;1.60;1.50;;;;;;;14.58;100.00;101503.81;5034273;28;20041;-79
2023/09/28 05:47:20;;;;;;;1.60;1.50;;;;;;;14.57;100.00;101504.72;5035334;28;20021;-79
2023/09/28 05:49:51;;;;;;;1.33;1.23;;;;;;;14.56;100.00;101508.22;5035632;28;20082;-80
2023/09/28 05:52:16;;;;;;;2.05;1.70;;;;;;;14.56;100.00;101513.44;5034879;28;20070;-79
2023/09/28 05:54:42;;;;;;;1.50;1.30;;;;;;;14.54;100.00;101507.38;5035263;28;20381;-80
2023/09/28 05:57:07;;;;;;;1.27;1.23;;;;;;;14.54;100.00;101505.63;5035423;28;20026;-80
2023/09/28 05:59:33;;;;;;;0.93;0.90;;;;;;;14.53;100.00;101516.94;5034755;28;20540;-81
2023/09/28 06:01:58;;;;;;;1.97;1.77;;;;;;;14.54;100.00;101523.91;5035299;28;20073;-81
2023/09/28 06:04:25;;;;;;;1.50;1.40;;;;;;;14.51;100.00;101531.81;5035207;28;20382;-81
2023/09/28 06:06:50;;;;;;;1.83;1.48;;;;;;;14.53;100.00;101532.63;5034922;28;20021;-81
2023/09/28 06:09:19;;;;;;;1.10;1.10;;;;;;;14.46;100.00;101526.69;5035108;28;20032;-81
2023/09/28 06:11:48;;;;;;;1.17;1.10;;;;;;;14.52;100.00;101534.38;5035307;28;20439;-81
2023/09/28 06:14:17;;;;;;;1.30;1.20;;;;;;;14.47;100.00;101520.56;5034168;28;20025;-81
2023/09/28 06:16:42;;;;;;;1.40;1.20;;;;;;;14.51;100.00;101521.38;5035318;28;20493;-82
2023/09/28 06:19:08;;;;;;;1.00;1.00;;;;;;;14.52;100.00;101517.88;5034125;28;20109;-81
2023/09/28 06:21:34;;;;;;;1.53;1.43;;;;;;;14.54;100.00;101526.50;5035184;28;20112;-82
2023/09/28 06:24:00;;;;;;;1.23;1.13;;;;;;;14.52;100.00;101523.09;5034842;28;20284;-82
2023/09/28 06:26:25;;;;;;;1.20;1.10;;;;;;;14.51;100.00;101526.59;5034389;28;20032;-78
2023/09/28 06:28:50;;;;;;;1.40;1.30;;;;;;;14.55;100.00;101543.91;5035058;28;20025;-78
2023/09/28 06:31:18;;;;;;;1.50;1.40;;;;;;;14.51;100.00;101534.44;5033737;28;20075;-78
2023/09/28 06:33:47;;;;;;;1.27;1.20;;;;;;;14.57;100.00;101543.91;5034345;28;20029;-78
2023/09/28 06:36:13;;;;;;;1.40;1.30;;;;;;;14.70;100.00;101547.13;5034544;28;20031;-78
2023/09/28 06:38:38;;;;;;;0.90;0.90;;;;;;;14.81;100.00;101561.66;5034628;28;20512;-77
2023/09/28 06:41:03;;;;;;;1.57;1.47;;;;;;;14.87;100.00;101563.28;5033842;28;20518;-80
2023/09/28 06:43:29;;;;;;;1.67;1.30;;;;;;;14.88;100.00;101562.41;5034911;28;20140;-78
2023/09/28 06:45:56;;;;;;;2.72;1.63;;;;;;;14.98;100.00;101563.06;5034613;28;20030;-76
2023/09/28 06:48:22;;;;;;;2.33;1.90;;;;;;;15.06;100.00;101558.53;5033339;28;20032;-81
2023/09/28 06:50:48;;;;;;;1.53;1.43;;;;;;;15.12;100.00;101565.38;5034448;28;20026;-82
2023/09/28 06:53:15;;;;;;;1.40;1.30;;;;;;;15.64;100.00;101572.88;5034501;28;20470;-81
2023/09/28 06:55:40;;;;;;;1.52;1.40;;;;;;;16.35;100.00;101576.28;5033720;28;20057;-80
2023/09/28 06:58:06;;;;;;;1.30;1.20;;;;;;;16.71;100.00;101588.38;5033863;28;20471;-81
2023/09/28 07:00:32;;;;;;;2.87;1.50;;;;;;;16.71;99.84;101588.38;5034702;28;20482;-81
2023/09/28 07:02:57;;;;;;;1.50;1.40;;;;;;;16.58;99.49;101586.13;5033657;28;20129;-80
2023/09/28 07:05:23;;;;;;;2.07;1.30;;;;;;;16.47;99.17;101588.19;5034210;28;20125;-80
2023/09/28 07:07:48;;;;;;;3.13;1.90;;;;;;;16.36;98.89;101601.56;5034214;28;20030;-80
2023/09/28 07:10:14;;;;;;;1.40;1.30;;;;;;;16.33;99.40;101609.50;5033211;28;20401;-80
2023/09/28 07:12:40;;;;;;;1.80;1.27;;;;;;;16.31;99.18;101600.84;5034123;28;20027;-80
2023/09/28 07:15:06;;;;;;;2.03;1.50;;;;;;;16.29;98.82;101603.50;5033880;28;20096;-80
2023/09/28 07:17:33;;;;;;;2.92;1.67;;;;;;;16.29;99.54;101593.00;5033738;28;20276;-80
2023/09/28 07:19:58;;;;;;;2.17;1.48;;;;;;;16.27;99.78;101571.25;5034105;28;20118;-80
2023/09/28 07:22:23;;;;;;;3.43;1.73;;;;;;;16.36;100.00;101591.97;5033039;28;20486;-80
2023/09/28 07:24:49;;;;;;;2.20;1.60;;;;;;;16.38;99.14;101601.53;5033860;28;20466;-81
2023/09/28 07:27:14;;;;;;;2.33;1.40;;;;;;;16.39;99.44;101593.63;5033548;28;20028;-81
2023/09/28 07:29:39;;;;;;;3.97;1.90;;;;;;;16.36;99.11;101576.25;5032960;28;20378;-80
2023/09/28 07:32:06;;;;;;;2.53;1.30;;;;;;;16.28;98.41;101583.44;5033790;28;20025;-80
2023/09/28 07:34:32;;;;;;;1.10;1.02;;;;;;;16.21;98.80;101587.13;5033736;28;20033;-80
2023/09/28 07:36:57;;;;;;;1.20;1.10;;;;;;;16.12;98.56;101597.88;5032925;28;20429;-81
2023/09/28 07:39:23;;;;;;;1.00;0.90;;;;;;;16.14;98.67;101624.88;5033410;28;20025;-81
2023/09/28 07:41:51;;;;;;;5.40;1.90;;;;;;;16.12;99.03;101610.97;5033381;28;20459;-81
2023/09/28 07:44:16;;;;;;;3.50;1.60;;;;;;;16.18;98.78;101614.28;5032566;28;20156;-81
2023/09/28 07:46:42;;;;;;;2.27;1.40;;;;;;;16.23;98.83;101624.63;5033859;28;20517;-80
2023/09/28 07:49:07;;;;;;;2.50;1.13;;;;;;;16.31;98.90;101633.13;5033342;28;20513;-81
2023/09/28 07:51:32;;;;;;;1.83;1.33;;;;;;;16.36;98.82;101626.03;5032966;28;20177;-81
2023/09/28 07:53:57;;;;;;;2.33;1.60;;;;;;;16.43;98.93;101621.47;5033656;28;20112;-81
2023/09/28 07:56:23;;;;;;;3.60;1.57;;;;;;;16.48;98.54;101627.44;5032843;28;20084;-81
2023/09/28 07:58:48;;;;;;;5.33;2.07;;;;;;;16.51;96.95;101621.25;5032443;28;20394;-81
2023/09/28 08:01:15;;;;;;;3.23;1.70;;;;;;;16.59;97.99;101637.63;5032867;28;20382;-80
2023/09/28 08:03:40;;;;;;;7.53;2.20;;;;;;;16.64;97.15;101635.72;5033466;28;20025;-81
2023/09/28 08:06:11;;;;;;;4.83;1.87;;;;;;;16.71;97.06;101636.41;5032315;28;20411;-81
2023/09/28 08:08:37;;;;;;;8.05;2.17;;;;;;;16.78;97.12;101647.59;5033233;28;20018;-81
2023/09/28 08:11:02;;;;;;;5.35;1.98;;;;;;;16.83;96.99;101645.69;5032569;28;20021;-81
2023/09/28 08:13:28;;;;;;;7.07;2.20;;;;;;;16.91;96.33;101640.22;5032576;28;20063;-81
2023/09/28 08:15:53;;;;;;;5.37;2.00;;;;;;;16.96;96.54;101646.22;5033015;28;20502;-81
2023/09/28 08:18:19;;;;;;;5.88;1.90;;;;;;;17.03;96.23;101652.16;5032612;28;20044;-81
2023/09/28 08:20:44;;;;;;;5.77;1.93;;;;;;;17.07;94.17;101638.03;5032149;28;20360;-81
2023/09/28 08:23:11;;;;;;;7.37;2.20;;;;;;;17.16;94.72;101637.78;5032710;28;20171;-81
2023/09/28 08:25:36;;;;;;;9.27;2.35;;;;;;;17.19;94.09;101645.53;5032036;28;20053;-81
2023/09/28 08:28:01;;;;;;;5.37;2.10;;;;;;;17.28;95.12;101647.88;5032153;28;20119;-81
2023/09/28 08:30:27;;;;;;;4.77;1.90;;;;;;;17.38;92.38;101653.69;5023575;28;20124;-81
2023/09/28 08:32:53;;;;;;;8.77;2.30;;;;;;;17.41;92.67;101666.72;5023897;28;20407;-81
2023/09/28 08:35:18;;;;;;;5.47;2.40;;;;;;;17.44;93.17;101657.91;5024973;28;20157;-81
2023/09/28 08:37:43;;;;;;;6.37;2.30;;;;;;;17.45;92.40;101662.25;5032427;28;20025;-81
2023/09/28 08:40:09;;;;;;;4.53;1.80;;;;;;;17.53;93.04;101662.00;5030900;28;20043;-81
2023/09/28 08:42:37;;;;;;;5.97;1.83;;;;;;;17.56;92.45;101667.16;5032053;28;20076;-81
2023/09/28 08:45:11;;;;;;;5.35;2.05;;;;;;;17.62;91.06;101674.00;5032185;28;20756;-82
2023/09/28 08:47:45;;;;;;;4.05;1.70;;;;;;;17.69;92.63;101686.84;5031658;28;20030;-81
2023/09/28 08:50:12;;;;;;;3.85;1.48;;;;;;;17.78;92.87;101683.06;5032230;28;20385;-82
2023/09/28 08:52:38;;;;;;;5.18;1.75;;;;;;;17.84;92.21;101677.66;5032388;28;20025;-81
2023/09/28 08:55:05;;;;;;;12.85;2.92;;;;;;;17.90;90.80;101692.34;5029667;28;20390;-81
2023/09/28 08:57:30;;;;;;;10.57;2.72;;;;;;;18.00;90.68;101698.16;5032190;28;20030;-80
2023/09/28 08:59:57;;;;;;;8.97;2.73;;;;;;;18.12;91.08;101695.13;5032659;28;20360;-80
2023/09/28 09:02:23;;;;;;;9.35;2.88;;;;;;;18.28;89.94;101695.47;5031308;28;20494;-79
2023/09/28 09:04:50;;;;;;;9.50;2.75;;;;;;;18.35;90.06;101690.88;5032615;28;20129;-81
2023/09/28 09:07:16;;;;;;;4.23;2.43;;;;;;;18.35;90.32;101698.75;5032249;28;20446;-84
2023/09/28 09:09:46;;;;;;;6.68;2.55;;;;;;;18.36;89.39;101696.06;5031548;28;20091;-85
2023/09/28 09:12:12;;;;;;;4.35;2.40;;;;;;;18.55;90.14;101697.19;5032217;28;20022;-83
2023/09/28 09:14:40;;;;;;;3.67;2.00;;;;;;;18.75;90.08;101699.13;5032037;28;20028;-82
2023/09/28 09:17:06;;;;;;;5.80;2.15;;;;;;;18.90;87.71;101692.44;5031810;28;20030;-81
2023/09/28 09:19:32;;;;;;;2.80;2.10;;;;;;;19.00;88.85;101696.47;5031473;28;20041;-80
2023/09/28 09:21:58;;;;;;;6.32;2.60;;;;;;;19.08;85.08;101694.41;5031337;28;20018;-81
2023/09/28 09:24:24;;;;;;;8.30;2.97;;;;;;;19.13;85.61;101695.09;5032244;28;20022;-80
2023/09/28 09:26:52;;;;;;;12.47;3.90;;;;;;;19.20;83.61;101685.19;5031878;28;20088;-84
2023/09/28 09:29:19;;;;;;;10.88;3.63;;;;;;;19.29;84.36;101687.47;5030562;28;20060;-83
2023/09/28 09:31:45;;;;;;;;;;;;;;;19.44;81.55;101699.19;5032230;28;20025;-82
2023/09/28 09:34:14;;;;;;;11.98;3.78;;;;;;;19.49;82.20;101701.63;5031595;28;19913;-82
2023/09/28 09:36:41;;;;;;;5.28;3.03;;;;;;;19.54;82.16;101691.78;5031193;28;20033;-82
2023/09/28 09:39:08;;;;;;;7.10;3.03;;;;;;;19.70;81.50;101704.34;5031949;28;20112;-81
2023/09/28 09:41:46;;;;;;;8.05;3.15;;;;;;;19.73;79.79;101710.34;5032240;28;20423;-82
2023/09/28 09:44:20;;;;;;;10.70;3.10;;;;;;;19.72;79.28;101710.38;5031207;28;20024;-81
2023/09/28 09:46:48;;;;;;;7.03;2.70;;;;;;;19.74;81.71;101703.28;5032192;28;20025;-82
2023/09/28 09:49:17;;;;;;;8.60;2.95;;;;;;;19.79;78.95;101703.97;5031710;28;20087;-82
2023/09/28 09:51:45;;;;;;;5.78;2.33;;;;;;;19.82;80.89;101710.88;5031488;28;20047;-82
2023/09/28 09:54:16;;;;;;;5.93;2.67;;;;;;;19.88;80.41;101710.66;5031679;28;20386;-82
2023/09/28 09:56:44;;;;;;;3.85;2.20;;;;;;;19.89;80.22;101715.88;5031712;28;20041;-82
2023/09/28 09:59:13;;;;;;;8.10;2.30;;;;;;;19.93;78.10;101713.13;5030306;28;20060;-82
2023/09/28 10:01:40;;;;;;;6.25;2.28;;;;;;;19.97;79.24;101717.34;5031213;28;20141;-79
2023/09/28 10:04:12;;;;;;;7.72;2.63;;;;;;;20.03;78.49;101722.38;5030938;28;20033;-78
2023/09/28 10:06:39;;;;;;;2.90;1.80;;;;;;;20.03;79.14;101712.66;5034039;28;20025;-80
2023/09/28 10:09:10;;;;;;;3.33;1.60;;;;;;;20.16;80.98;101709.53;5035186;28;20033;-80
2023/09/28 10:11:38;;;;;;;4.22;2.10;;;;;;;20.30;80.41;101701.91;5034869;28;20037;-80
2023/09/28 10:14:04;;;;;;;3.80;1.70;;;;;;;20.48;73.75;101694.97;5035006;28;20022;-80
2023/09/28 10:16:30;;;;;;;5.32;2.03;;;;;;;20.50;77.25;101693.09;5035301;28;20028;-80
2023/09/28 10:18:57;;;;;;;7.03;2.15;;;;;;;20.49;73.94;101680.84;5034638;28;20415;-79
2023/09/28 10:21:22;;;;;;;6.20;1.92;;;;;;;20.49;78.07;101674.72;5034867;28;20363;-80
2023/09/28 10:23:47;;;;;;;4.03;1.60;;;;;;;20.56;78.27;101670.88;5035112;28;20036;-80
2023/09/28 10:26:15;;;;;;;3.20;1.70;;;;;;;20.60;78.82;101672.47;5033893;28;20037;-80
2023/09/28 10:29:01;;;;;;;7.55;2.03;;;;;;;20.57;77.64;101672.59;5034751;28;20092;-80
2023/09/28 10:31:28;;;;;;;2.40;1.58;;;;;;;20.57;78.53;101677.03;5034756;28;20033;-80
2023/09/28 10:34:01;;;;;;;2.80;1.48;;;;;;;20.61;75.61;101673.31;5033143;28;20029;-80
2023/09/28 10:36:27;;;;;;;2.10;1.40;;;;;;;20.70;78.54;101685.25;5034375;28;20498;-81
2023/09/28 10:39:14;;;;;;;2.70;1.15;;;;;;;20.81;74.64;101690.94;5034475;28;20108;-80
2023/09/28 10:41:50;;;;;;;2.88;1.40;;;;;;;20.92;77.99;101693.09;5034806;28;20406;-80
2023/09/28 10:44:17;;;;;;;;;;;;;;;20.97;75.75;101683.16;5034873;28;20104;-81
2023/09/28 10:46:44;;;;;;;6.32;2.22;;;;;;;20.98;72.84;101687.53;5034169;28;19917;-81
2023/09/28 10:49:13;;;;;;;5.70;1.90;;;;;;;21.11;76.08;101687.84;5033836;28;20033;-80
2023/09/28 10:51:41;;;;;;;2.88;1.73;;;;;;;21.23;75.08;101687.22;5034449;28;20067;-80
2023/09/28 10:54:08;;;;;;;5.20;1.80;;;;;;;21.35;73.66;101691.09;5033353;28;20029;-80
2023/09/28 10:56:34;;;;;;;8.57;2.50;;;;;;;21.32;73.78;101695.66;5034277;28;20037;-81
2023/09/28 10:59:02;;;;;;;3.22;1.80;;;;;;;21.25;74.11;101700.38;5034354;28;20425;-81
2023/09/28 11:01:28;;;;;;;3.03;1.80;;;;;;;21.28;75.14;101694.94;5033528;28;20049;-80
2023/09/28 11:03:54;;;;;;;3.85;1.77;;;;;;;21.37;72.27;101710.38;5033922;28;20037;-80
2023/09/28 11:06:20;;;;;;;6.10;2.20;;;;;;;21.36;71.59;101707.78;5034131;28;20382;-80
2023/09/28 11:08:45;;;;;;;7.70;2.30;;;;;;;21.32;72.29;101701.78;5033445;28;20072;-80
2023/09/28 11:11:11;;;;;;;7.83;2.43;;;;;;;21.26;72.43;101702.09;5033742;28;20026;-80
2023/09/28 11:13:37;;;;;;;6.00;2.07;;;;;;;21.19;72.38;101711.19;5034147;28;20355;-80
2023/09/28 11:16:03;;;;;;;6.07;2.08;;;;;;;21.18;69.45;101718.28;5033060;28;20021;-81
2023/09/28 11:18:29;;;;;;;8.20;2.17;;;;;;;21.19;65.59;101717.34;5033730;28;20022;-81
2023/09/28 11:20:56;;;;;;;9.23;2.55;;;;;;;21.19;68.67;101704.16;5034106;28;20037;-81
2023/09/28 11:23:22;;;;;;;5.95;2.15;;;;;;;21.27;71.31;101706.44;5032905;28;20021;-80